createdAt,value
2018-01-11T00:00:21.920Z,32.53
2018-01-11T00:02:49.965Z,36.50
2018-01-11T00:05:17.503Z,36.67
2018-01-11T00:07:45.045Z,34.80
2018-01-11T00:10:13.087Z,32.50
2018-01-11T00:12:40.631Z,37.47
2018-01-11T00:15:08.180Z,35.10
2018-01-11T00:17:35.747Z,36.20
2018-01-11T00:20:03.287Z,31.80
2018-01-11T00:22:30.820Z,32.93
2018-01-11T00:24:58.621Z,37.13
2018-01-11T00:27:26.165Z,32.43
2018-01-11T00:29:53.710Z,32.97
2018-01-11T00:32:21.300Z,36.30
2018-01-11T00:34:48.839Z,36.90
2018-01-11T00:37:16.447Z,37.47
2018-01-11T00:39:44.012Z,35.30
2018-01-11T00:42:12.320Z,33.38
2018-01-11T00:44:39.864Z,34.80
2018-01-11T00:47:08.654Z,39.20
2018-01-11T00:49:36.199Z,34.90
2018-01-11T00:52:04.499Z,35.87
2018-01-11T00:54:32.078Z,34.20
2018-01-11T00:56:59.619Z,35.43
2018-01-11T00:59:27.176Z,34.03
2018-01-11T01:01:54.739Z,37.07
2018-01-11T01:04:22.317Z,34.60
2018-01-11T01:06:49.851Z,33.00
2018-01-11T01:09:17.775Z,34.65
2018-01-11T01:11:45.806Z,38.80
2018-01-11T01:14:23.580Z,47.25
2018-01-11T01:21:13.529Z,34.63
2018-01-11T01:23:41.068Z,37.40
2018-01-11T01:26:08.607Z,37.67
2018-01-11T01:28:39.611Z,34.20
2018-01-11T01:31:07.156Z,34.97
2018-01-11T01:33:34.694Z,31.57
2018-01-11T01:36:02.259Z,35.60
2018-01-11T01:38:29.794Z,37.90
2018-01-11T01:40:58.107Z,35.10
2018-01-11T01:43:26.444Z,40.12
2018-01-11T01:45:53.998Z,36.90
2018-01-11T01:48:34.424Z,34.47
2018-01-11T01:51:01.976Z,31.87
2018-01-11T01:53:29.524Z,32.17
2018-01-11T01:55:57.095Z,30.53
2018-01-11T01:58:24.654Z,31.00
2018-01-11T02:00:52.192Z,31.00
2018-01-11T02:03:19.759Z,30.65
2018-01-11T02:05:47.302Z,29.47
2018-01-11T02:08:16.552Z,33.67
2018-01-11T02:10:44.816Z,39.90
2018-01-11T02:13:13.122Z,28.40
2018-01-11T02:15:40.665Z,28.50
2018-01-11T02:18:08.242Z,31.27
2018-01-11T02:20:35.779Z,31.27
2018-01-11T02:23:03.321Z,28.27
2018-01-11T02:25:30.907Z,28.77
2018-01-11T02:27:58.519Z,31.63
2018-01-11T02:30:26.060Z,26.07
2018-01-11T02:32:54.547Z,27.90
2018-01-11T02:35:22.087Z,25.80
2018-01-11T02:37:49.623Z,25.43
2018-01-11T02:40:17.183Z,25.90
2018-01-11T02:42:44.763Z,24.53
2018-01-11T02:45:12.303Z,23.90
2018-01-11T02:47:39.879Z,25.40
2018-01-11T02:50:07.422Z,26.45
2018-01-11T02:52:34.962Z,24.53
2018-01-11T02:55:02.761Z,26.40
2018-01-11T02:57:30.307Z,25.67
2018-01-11T02:59:57.848Z,25.00
2018-01-11T03:02:25.420Z,22.80
2018-01-11T03:04:52.965Z,24.97
2018-01-11T03:07:21.267Z,25.60
2018-01-11T03:09:48.823Z,25.00
2018-01-11T03:12:16.507Z,26.02
2018-01-11T03:14:45.119Z,25.30
2018-01-11T03:17:13.079Z,26.97
2018-01-11T03:19:41.380Z,28.10
2018-01-11T03:22:08.911Z,26.50
2018-01-11T03:24:36.513Z,27.95
2018-01-11T03:27:04.051Z,26.70
2018-01-11T03:29:31.595Z,29.67
2018-01-11T03:31:59.155Z,28.60
2018-01-11T03:34:26.699Z,30.30
2018-01-11T03:36:54.251Z,30.50
2018-01-11T03:39:22.399Z,29.43
2018-01-11T03:41:49.942Z,28.83
2018-01-11T03:44:17.480Z,30.10
2018-01-11T03:46:45.812Z,29.30
2018-01-11T03:49:14.463Z,30.62
2018-01-11T03:51:42.001Z,28.07
2018-01-11T03:54:10.326Z,27.67
2018-01-11T03:56:37.854Z,30.60
2018-01-11T03:59:05.400Z,29.17
2018-01-11T04:01:33.523Z,30.80
2018-01-11T04:04:01.063Z,30.33
2018-01-11T04:06:28.606Z,25.60
2018-01-11T04:08:56.252Z,29.50
2018-01-11T04:11:24.568Z,27.90
2018-01-11T04:13:52.120Z,28.10
2018-01-11T04:16:21.111Z,29.73
2018-01-11T04:18:48.643Z,29.93
2018-01-11T04:21:17.255Z,27.25
2018-01-11T04:23:45.116Z,27.37
2018-01-11T04:26:13.678Z,28.37
2018-01-11T04:28:41.223Z,29.77
2018-01-11T04:31:09.580Z,29.77
2018-01-11T04:33:37.119Z,31.40
2018-01-11T04:36:04.683Z,28.70
2018-01-11T04:38:32.243Z,29.60
2018-01-11T04:40:59.771Z,26.27
2018-01-11T04:43:27.323Z,25.20
2018-01-11T04:45:55.379Z,29.83
2018-01-11T04:48:23.679Z,27.17
2018-01-11T04:50:51.214Z,29.50
2018-01-11T04:53:18.780Z,26.17
2018-01-11T04:55:47.085Z,28.30
2018-01-11T04:58:16.281Z,26.75
2018-01-11T05:00:49.556Z,25.30
2018-01-11T05:03:17.857Z,27.20
2018-01-11T05:05:45.404Z,25.10
2018-01-11T05:08:25.335Z,23.67
2018-01-11T05:13:29.295Z,23.47
2018-01-11T05:15:56.832Z,25.70
2018-01-11T05:18:25.316Z,21.30
2018-01-11T05:20:52.874Z,20.90
2018-01-11T05:23:20.411Z,21.14
2018-01-11T05:25:47.952Z,23.10
2018-01-11T05:28:16.907Z,20.80
2018-01-11T05:30:44.479Z,19.30
2018-01-11T05:33:12.011Z,21.53
2018-01-11T05:35:39.619Z,23.60
2018-01-11T05:38:07.152Z,22.90
2018-01-11T05:40:34.678Z,23.53
2018-01-11T05:43:03.012Z,24.83
2018-01-11T05:45:30.547Z,24.10
2018-01-11T05:47:58.079Z,21.80
2018-01-11T05:50:26.927Z,22.90
2018-01-11T05:52:54.467Z,22.57
2018-01-11T05:55:21.995Z,22.70
2018-01-11T05:57:49.555Z,30.10
2018-01-11T06:00:17.088Z,43.53
2018-01-11T06:02:45.400Z,46.70
2018-01-11T06:05:15.443Z,65.60
2018-01-11T06:07:42.988Z,36.00
2018-01-11T06:10:10.533Z,36.97
2018-01-11T06:12:38.475Z,30.83
2018-01-11T06:15:06.018Z,34.87
2018-01-11T06:17:33.596Z,41.77
2018-01-11T06:20:02.770Z,32.40
2018-01-11T06:22:30.307Z,26.03
2018-01-11T06:24:57.863Z,29.00
2018-01-11T06:27:25.424Z,29.98
2018-01-11T06:29:52.974Z,27.63
2018-01-11T06:32:20.516Z,24.04
2018-01-11T06:34:48.116Z,22.87
2018-01-11T06:37:16.540Z,23.62
2018-01-11T06:39:44.080Z,25.63
2018-01-11T06:42:11.631Z,31.07
2018-01-11T06:44:39.411Z,30.50
2018-01-11T06:47:06.938Z,22.70
2018-01-11T06:49:34.496Z,22.98
2018-01-11T06:52:02.039Z,22.00
2018-01-11T06:54:29.575Z,24.60
2018-01-11T06:56:57.195Z,22.43
2018-01-11T06:59:24.731Z,22.83
2018-01-11T07:01:52.259Z,20.80
2018-01-11T07:04:19.820Z,23.25
2018-01-11T07:06:47.383Z,23.05
2018-01-11T07:09:16.424Z,23.98
2018-01-11T07:11:43.987Z,26.17
2018-01-11T07:14:11.526Z,24.00
2018-01-11T07:16:39.059Z,23.27
2018-01-11T07:19:07.215Z,22.40
2018-01-11T07:21:35.183Z,21.30
2018-01-11T07:24:02.715Z,20.77
2018-01-11T07:26:30.285Z,20.58
2018-01-11T07:28:57.825Z,20.13
2018-01-11T07:31:25.355Z,20.87
2018-01-11T07:33:52.915Z,21.03
2018-01-11T07:36:20.451Z,22.08
2018-01-11T07:38:47.999Z,21.17
2018-01-11T07:41:17.451Z,19.87
2018-01-11T07:43:44.981Z,21.90
2018-01-11T07:46:12.518Z,20.92
2018-01-11T07:48:40.858Z,19.70
2018-01-11T07:51:08.408Z,19.27
2018-01-11T07:53:35.948Z,19.37
2018-01-11T07:56:03.508Z,20.47
2018-01-11T07:58:31.813Z,19.00
2018-01-11T08:00:59.355Z,20.67
2018-01-11T08:03:27.444Z,21.75
2018-01-11T08:05:54.975Z,20.60
2018-01-11T08:08:22.504Z,21.03
2018-01-11T08:10:50.075Z,21.30
2018-01-11T08:13:18.646Z,20.80
2018-01-11T08:15:46.175Z,19.57
2018-01-11T08:18:15.457Z,19.90
2018-01-11T08:20:43.123Z,19.13
2018-01-11T08:23:11.028Z,19.57
2018-01-11T08:25:39.646Z,20.27
2018-01-11T08:28:07.189Z,19.63
2018-01-11T08:30:34.723Z,18.90
2018-01-11T08:33:02.321Z,18.67
2018-01-11T08:35:29.859Z,18.10
2018-01-11T08:37:58.228Z,18.70
2018-01-11T08:40:25.752Z,17.20
2018-01-11T08:42:53.280Z,18.23
2018-01-11T08:45:20.815Z,17.23
2018-01-11T08:47:48.847Z,18.50
2018-01-11T08:50:16.527Z,18.62
2018-01-11T08:52:44.068Z,18.63
2018-01-11T08:55:11.622Z,23.97
2018-01-11T08:57:39.155Z,19.70
2018-01-11T09:00:06.691Z,24.03
2018-01-11T09:02:35.023Z,21.07
2018-01-11T09:05:02.565Z,22.77
2018-01-11T09:07:30.118Z,19.20
2018-01-11T09:09:58.011Z,19.00
2018-01-11T09:12:25.550Z,20.00
2018-01-11T09:14:53.087Z,18.47
2018-01-11T09:17:20.660Z,17.37
2018-01-11T09:19:48.187Z,17.17
2018-01-11T09:22:16.440Z,16.77
2018-01-11T09:24:44.319Z,17.07
2018-01-11T09:27:11.856Z,16.30
2018-01-11T09:29:39.391Z,16.87
2018-01-11T09:32:07.050Z,18.03
2018-01-11T09:34:34.720Z,16.77
2018-01-11T09:37:02.325Z,16.87
2018-01-11T09:39:29.900Z,17.67
2018-01-11T09:41:58.215Z,16.20
2018-01-11T09:44:25.751Z,17.63
2018-01-11T09:46:53.307Z,17.67
2018-01-11T09:49:21.615Z,17.90
2018-01-11T09:51:49.142Z,17.70
2018-01-11T09:54:17.895Z,17.23
2018-01-11T09:56:46.279Z,17.30
2018-01-11T09:59:16.564Z,17.50
2018-01-11T10:01:44.124Z,18.40
2018-01-11T10:04:11.650Z,19.00
2018-01-11T10:06:39.959Z,21.17
2018-01-11T10:09:07.873Z,17.60
2018-01-11T10:11:35.707Z,17.23
2018-01-11T10:14:04.317Z,16.50
2018-01-11T10:16:32.629Z,18.33
2018-01-11T10:19:01.293Z,15.07
2018-01-11T10:21:29.271Z,16.80
2018-01-11T10:23:57.232Z,15.90
2018-01-11T10:26:25.227Z,15.35
2018-01-11T10:28:53.526Z,15.83
2018-01-11T10:31:21.111Z,17.25
2018-01-11T10:33:48.647Z,16.80
2018-01-11T10:36:16.415Z,17.83
2018-01-11T10:38:44.303Z,17.43
2018-01-11T10:41:11.843Z,15.73
2018-01-11T10:43:39.389Z,16.43
2018-01-11T10:46:07.603Z,16.43
2018-01-11T10:48:35.144Z,15.20
2018-01-11T10:51:03.072Z,17.77
2018-01-11T10:53:31.005Z,16.90
2018-01-11T10:55:58.607Z,15.93
2018-01-11T10:58:26.413Z,15.83
2018-01-11T11:01:00.033Z,16.00
2018-01-11T11:03:27.579Z,16.00
2018-01-11T11:05:55.124Z,16.03
2018-01-11T11:08:22.687Z,16.90
2018-01-11T11:10:50.499Z,16.10
2018-01-11T11:13:18.420Z,16.70
2018-01-11T11:15:46.231Z,15.77
2018-01-11T11:18:26.182Z,18.12
2018-01-11T11:23:56.135Z,17.73
2018-01-11T11:26:24.078Z,18.75
2018-01-11T11:28:53.949Z,17.70
2018-01-11T11:31:21.892Z,16.75
2018-01-11T11:33:49.829Z,18.08
2018-01-11T11:36:17.641Z,17.60
2018-01-11T11:38:45.578Z,17.10
2018-01-11T11:41:15.041Z,17.62
2018-01-11T11:43:42.900Z,16.97
2018-01-11T11:46:11.231Z,16.33
2018-01-11T11:48:40.287Z,16.00
2018-01-11T11:51:08.198Z,16.00
2018-01-11T11:53:37.757Z,16.63
2018-01-11T11:56:05.515Z,17.10
2018-01-11T11:58:33.280Z,17.70
2018-01-11T12:01:01.989Z,16.47
2018-01-11T12:03:29.856Z,17.97
2018-01-11T12:05:57.697Z,16.77
2018-01-11T12:08:26.074Z,17.67
2018-01-11T12:10:53.970Z,17.10
2018-01-11T12:13:21.898Z,16.10
2018-01-11T12:15:49.881Z,16.80
2018-01-11T12:18:17.718Z,15.67
2018-01-11T12:20:45.611Z,17.20
2018-01-11T12:23:14.906Z,16.25
2018-01-11T12:25:42.561Z,15.30
2018-01-11T12:28:10.498Z,16.60
2018-01-11T12:30:39.609Z,16.53
2018-01-11T12:33:07.916Z,16.90
2018-01-11T12:35:35.573Z,16.97
2018-01-11T12:38:03.191Z,15.70
2018-01-11T12:40:32.132Z,15.17
2018-01-11T12:42:59.673Z,14.87
2018-01-11T12:45:27.244Z,16.60
2018-01-11T12:47:54.781Z,17.10
2018-01-11T12:50:23.088Z,14.30
2018-01-11T12:52:51.857Z,16.70
2018-01-11T12:55:20.652Z,14.30
2018-01-11T12:57:48.560Z,16.10
2018-01-11T13:00:17.090Z,16.50
2018-01-11T13:02:46.004Z,16.63
2018-01-11T13:05:24.102Z,16.40
2018-01-11T13:10:28.275Z,15.40
2018-01-11T13:12:56.119Z,14.40
2018-01-11T13:15:23.961Z,15.80
2018-01-11T13:17:52.681Z,16.27
2018-01-11T13:20:20.551Z,16.17
2018-01-11T13:22:48.649Z,14.63
2018-01-11T13:25:17.055Z,15.75
2018-01-11T13:27:45.738Z,15.27
2018-01-11T13:30:26.176Z,16.20
2018-01-11T13:40:40.088Z,16.47
2018-01-11T13:43:07.641Z,17.50
2018-01-11T13:45:35.179Z,18.83
2018-01-11T13:48:03.148Z,19.07
2018-01-11T13:50:31.513Z,18.90
2018-01-11T13:52:59.826Z,19.20
2018-01-11T13:55:27.388Z,19.40
2018-01-11T13:57:54.935Z,19.53
2018-01-11T14:00:22.701Z,21.40
2018-01-11T14:02:50.270Z,21.13
2018-01-11T14:05:17.808Z,19.27
2018-01-11T14:07:45.355Z,19.93
2018-01-11T14:10:14.266Z,20.07
2018-01-11T14:12:41.793Z,20.40
2018-01-11T14:15:09.336Z,21.17
2018-01-11T14:17:37.813Z,22.13
2018-01-11T14:20:05.379Z,22.43
2018-01-11T14:22:32.961Z,22.40
2018-01-11T14:25:00.560Z,22.87
2018-01-11T14:27:28.121Z,23.00
2018-01-11T14:29:55.676Z,25.13
2018-01-11T14:32:23.544Z,25.27
2018-01-11T14:34:52.870Z,25.93
2018-01-11T14:37:21.195Z,26.95
2018-01-11T14:39:48.765Z,28.37
2018-01-11T14:42:16.758Z,28.62
2018-01-11T14:44:44.338Z,31.00
2018-01-11T14:47:11.956Z,32.97
2018-01-11T14:49:39.902Z,34.50
2018-01-11T14:52:07.934Z,35.03
2018-01-11T14:54:37.037Z,37.60
2018-01-11T14:57:04.978Z,38.40
2018-01-11T14:59:32.899Z,36.05
2018-01-11T15:02:04.435Z,40.40
2018-01-11T15:04:33.311Z,36.70
2018-01-11T15:07:01.176Z,39.17
2018-01-11T15:09:29.982Z,40.17
2018-01-11T15:11:58.775Z,39.23
2018-01-11T15:14:26.850Z,37.37
2018-01-11T15:16:55.399Z,38.33
2018-01-11T15:19:22.953Z,37.50
2018-01-11T15:21:50.504Z,34.95
2018-01-11T15:24:18.100Z,36.50
2018-01-11T15:26:46.427Z,37.17
2018-01-11T15:29:15.690Z,38.22
2018-01-11T15:31:43.473Z,38.70
2018-01-11T15:34:11.549Z,36.07
2018-01-11T15:36:39.519Z,38.10
2018-01-11T15:39:08.444Z,38.40
2018-01-11T15:41:36.385Z,36.50
2018-01-11T15:44:05.553Z,37.33
2018-01-11T15:46:33.554Z,38.35
2018-01-11T15:49:01.494Z,38.40
2018-01-11T15:51:30.181Z,36.47
2018-01-11T15:53:58.943Z,38.90
2018-01-11T15:56:26.838Z,40.10
2018-01-11T15:58:54.437Z,39.30
2018-01-11T16:01:22.727Z,40.03
2018-01-11T16:03:50.303Z,40.07
2018-01-11T16:06:17.876Z,42.20
2018-01-11T16:08:46.213Z,39.63
2018-01-11T16:11:16.372Z,33.30
2018-01-11T16:13:44.588Z,34.57
2018-01-11T16:16:12.168Z,33.17
2018-01-11T16:18:39.717Z,37.67
2018-01-11T16:21:07.273Z,38.60
2018-01-11T16:23:35.317Z,37.05
2018-01-11T16:26:02.858Z,37.90
2018-01-11T16:28:31.417Z,40.28
2018-01-11T16:30:59.010Z,42.63
2018-01-11T16:33:28.093Z,44.67
2018-01-11T16:35:55.677Z,42.63
2018-01-11T16:38:24.077Z,44.08
2018-01-11T16:40:52.408Z,41.63
2018-01-11T16:43:19.992Z,38.45
2018-01-11T16:45:49.114Z,40.63
2018-01-11T16:48:29.109Z,40.49
2018-01-11T16:50:56.701Z,39.17
2018-01-11T16:53:24.265Z,38.50
2018-01-11T16:55:52.591Z,36.40
2018-01-11T16:58:20.176Z,35.45
2018-01-11T17:00:47.740Z,35.13
2018-01-11T17:03:17.304Z,36.70
2018-01-11T17:05:51.001Z,37.97
2018-01-11T17:08:18.562Z,44.70
2018-01-11T17:10:48.979Z,39.30
2018-01-11T17:13:16.581Z,36.30
2018-01-11T17:15:44.141Z,36.70
2018-01-11T17:18:11.756Z,38.77
2018-01-11T17:20:47.278Z,37.97
2018-01-11T17:23:26.350Z,39.53
2018-01-11T17:26:40.456Z,40.33
2018-01-11T17:29:08.831Z,41.23
2018-01-11T17:31:36.448Z,37.00
2018-01-11T17:34:04.074Z,41.77
2018-01-11T17:36:32.380Z,40.40
2018-01-11T17:38:59.942Z,40.60
2018-01-11T17:41:27.541Z,40.78
2018-01-11T17:43:55.146Z,40.67
2018-01-11T17:46:22.869Z,38.35
2018-01-11T17:48:50.752Z,41.05
2018-01-11T17:51:18.426Z,39.40
2018-01-11T17:53:46.222Z,35.60
2018-01-11T17:56:25.566Z,34.08
2018-01-11T18:01:26.083Z,35.93
2018-01-11T18:03:53.689Z,35.00
2018-01-11T18:06:21.488Z,37.20
2018-01-11T18:08:49.757Z,39.63
2018-01-11T18:11:17.369Z,37.00
2018-01-11T18:13:45.074Z,38.23
2018-01-11T18:16:12.816Z,37.90
2018-01-11T18:18:40.557Z,38.10
2018-01-11T18:21:08.343Z,36.43
2018-01-11T18:23:37.470Z,32.40
2018-01-11T18:26:05.908Z,35.30
2018-01-11T18:28:34.484Z,35.47
2018-01-11T18:31:03.524Z,37.13
2018-01-11T18:33:31.152Z,32.70
2018-01-11T18:35:58.886Z,32.80
2018-01-11T18:38:26.651Z,35.47
2018-01-11T18:40:55.308Z,29.20
2018-01-11T18:43:23.637Z,33.70
2018-01-11T18:45:51.279Z,34.33
2018-01-11T18:48:19.356Z,34.40
2018-01-11T18:50:46.977Z,35.73
2018-01-11T18:53:15.898Z,35.60
2018-01-11T18:55:43.542Z,32.63
2018-01-11T18:58:11.858Z,32.73
2018-01-11T19:00:39.517Z,33.67
2018-01-11T19:03:08.061Z,31.67
2018-01-11T19:05:35.740Z,32.92
2018-01-11T19:08:03.552Z,31.97
2018-01-11T19:10:32.061Z,34.10
2018-01-11T19:12:59.898Z,36.03
2018-01-11T19:15:28.209Z,35.45
2018-01-11T19:17:56.717Z,33.67
2018-01-11T19:20:24.315Z,36.17
2018-01-11T19:22:51.904Z,38.37
2018-01-11T19:25:19.523Z,36.70
2018-01-11T19:27:47.982Z,33.23
2018-01-11T19:30:15.608Z,33.85
2018-01-11T19:32:43.147Z,34.20
2018-01-11T19:35:10.702Z,34.07
2018-01-11T19:37:38.311Z,32.70
2018-01-11T19:40:05.945Z,32.47
2018-01-11T19:42:33.572Z,33.20
2018-01-11T19:45:12.302Z,33.73
2018-01-11T19:47:40.140Z,32.27
2018-01-11T19:52:50.676Z,34.53
2018-01-11T19:55:22.711Z,33.90
2018-01-11T19:57:50.280Z,32.60
2018-01-11T20:00:17.870Z,34.22
2018-01-11T20:02:45.669Z,34.10
2018-01-11T20:05:23.659Z,29.35
2018-01-11T20:09:52.534Z,31.95
2018-01-11T20:12:20.411Z,33.65
2018-01-11T20:15:18.246Z,33.83
2018-01-11T20:17:46.315Z,35.27
2018-01-11T20:20:25.553Z,36.72
2018-01-11T20:25:21.701Z,34.43
2018-01-11T20:27:49.455Z,33.50
2018-01-11T20:30:18.542Z,36.10
2018-01-11T20:32:46.256Z,33.07
2018-01-11T20:35:31.658Z,33.80
2018-01-11T20:46:19.342Z,32.23
2018-01-11T20:48:47.682Z,32.27
2018-01-11T20:51:18.138Z,33.03
2018-01-11T20:53:47.341Z,32.80
2018-01-11T20:56:15.588Z,31.20
2018-01-11T20:58:43.177Z,32.77
2018-01-11T21:01:10.756Z,33.20
2018-01-11T21:03:38.309Z,34.10
2018-01-11T21:06:06.616Z,30.60
2018-01-11T21:08:34.196Z,30.83
2018-01-11T21:11:01.744Z,31.13
2018-01-11T21:13:29.293Z,32.60
2018-01-11T21:15:57.232Z,33.23
2018-01-11T21:18:24.906Z,32.87
2018-01-11T21:20:52.494Z,32.67
2018-01-11T21:23:20.100Z,28.33
2018-01-11T21:25:48.458Z,28.30
2018-01-11T21:28:16.470Z,29.73
2018-01-11T21:30:44.083Z,25.27
2018-01-11T21:33:11.671Z,26.00
2018-01-11T21:35:39.994Z,25.97
2018-01-11T21:38:07.640Z,24.65
2018-01-11T21:40:35.361Z,22.20
2018-01-11T21:43:02.979Z,21.50
2018-01-11T22:25:48.341Z,25.00
2018-01-11T22:28:16.452Z,26.00
2018-01-11T22:30:44.034Z,23.47
2018-01-11T22:33:11.753Z,23.73
2018-01-11T22:35:39.482Z,26.17
2018-01-11T22:43:07.738Z,26.63
2018-01-11T22:45:36.956Z,30.00
2018-01-11T22:48:05.195Z,26.10
2018-01-11T22:50:32.882Z,27.62
2018-01-11T22:53:02.776Z,27.90
2018-01-11T22:55:30.490Z,28.67
2018-01-11T22:57:59.046Z,27.60
2018-01-11T23:00:27.015Z,27.13
2018-01-11T23:02:55.402Z,26.70
2018-01-11T23:05:23.102Z,24.77
2018-01-11T23:07:51.082Z,24.07
2018-01-11T23:10:18.714Z,25.65
2018-01-11T23:12:46.659Z,23.30
2018-01-11T23:15:25.337Z,23.77
2018-01-11T23:23:33.879Z,22.47
2018-01-11T23:26:01.849Z,23.20
2018-01-11T23:28:31.086Z,24.25
2018-01-11T23:30:58.778Z,24.57
2018-01-11T23:33:27.446Z,23.38
2018-01-11T23:35:56.475Z,25.83
2018-01-11T23:38:24.188Z,24.50
2018-01-11T23:40:52.784Z,25.00
2018-01-11T23:43:20.635Z,24.08
2018-01-11T23:45:48.628Z,25.87
2018-01-11T23:48:17.129Z,24.92
2018-01-11T23:50:45.297Z,26.53
2018-01-11T23:53:15.901Z,26.63
2018-01-11T23:55:45.019Z,26.80
2018-01-11T23:58:12.868Z,28.27
